createdAt,value
2019-05-25T00:00:25.930Z,8.20
2019-05-25T00:03:00.290Z,7.27
2019-05-25T00:05:43.088Z,6.20
2019-05-25T00:08:25.620Z,6.60
2019-05-25T00:11:05.591Z,8.07
2019-05-25T00:13:55.223Z,4.90
2019-05-25T00:16:36.369Z,6.03
2019-05-25T00:19:09.610Z,4.50
2019-05-25T00:21:42.956Z,5.17
2019-05-25T00:24:31.206Z,5.77
2019-05-25T00:27:17.267Z,7.53
2019-05-25T00:30:04.397Z,6.23
2019-05-25T00:32:42.425Z,7.27
2019-05-25T00:35:19.313Z,4.57
2019-05-25T00:37:52.517Z,8.07
2019-05-25T00:40:39.541Z,8.77
2019-05-25T00:43:14.015Z,5.90
2019-05-25T00:45:47.503Z,3.77
2019-05-25T00:48:21.967Z,8.33
2019-05-25T00:50:55.457Z,4.37
2019-05-25T00:53:31.541Z,10.63
2019-05-25T00:56:07.752Z,5.70
2019-05-25T00:58:50.691Z,5.07
2019-05-25T01:01:35.559Z,4.47
2019-05-25T01:04:13.300Z,4.60
2019-05-25T01:07:01.737Z,5.33
2019-05-25T01:09:35.524Z,3.30
2019-05-25T01:12:18.463Z,4.40
2019-05-25T01:15:03.813Z,6.83
2019-05-25T01:17:41.437Z,7.00
2019-05-25T01:20:24.206Z,5.03
2019-05-25T01:23:09.735Z,4.83
2019-05-25T01:25:52.388Z,3.80
2019-05-25T01:28:27.175Z,5.33
2019-05-25T01:31:04.134Z,3.70
2019-05-25T01:33:42.466Z,8.17
2019-05-25T01:36:15.799Z,7.63
2019-05-25T01:38:54.272Z,5.13
2019-05-25T01:41:28.886Z,6.30
2019-05-25T01:44:02.189Z,4.67
2019-05-25T01:46:40.093Z,6.07
2019-05-25T01:49:13.264Z,7.30
2019-05-25T01:51:47.562Z,5.07
2019-05-25T01:54:25.274Z,4.13
2019-05-25T01:56:58.715Z,4.40
2019-05-25T01:59:30.549Z,7.43
2019-05-25T02:02:04.754Z,5.73
2019-05-25T02:04:37.152Z,6.07
2019-05-25T02:07:15.108Z,4.40
2019-05-25T02:09:48.935Z,4.87
2019-05-25T02:12:22.571Z,5.30
2019-05-25T02:14:59.146Z,5.00
2019-05-25T02:17:32.405Z,5.63
2019-05-25T02:20:12.233Z,7.13
2019-05-25T02:22:56.332Z,5.27
2019-05-25T02:25:43.992Z,8.27
2019-05-25T02:28:26.349Z,5.53
2019-05-25T02:31:04.010Z,6.17
2019-05-25T02:33:44.476Z,4.87
2019-05-25T02:36:22.857Z,4.23
2019-05-25T02:38:56.412Z,6.70
2019-05-25T02:41:37.216Z,5.50
2019-05-25T02:44:26.428Z,6.83
2019-05-25T02:46:58.912Z,6.17
2019-05-25T02:49:32.571Z,4.83
2019-05-25T02:52:06.042Z,6.33
2019-05-25T02:54:43.735Z,8.83
2019-05-25T02:57:24.054Z,6.30
2019-05-25T03:00:06.333Z,6.77
2019-05-25T03:02:40.526Z,5.00
2019-05-25T03:05:33.462Z,6.50
2019-05-25T03:08:09.313Z,5.23
2019-05-25T03:10:43.961Z,7.03
2019-05-25T03:13:19.286Z,7.83
2019-05-25T03:15:57.255Z,7.10
2019-05-25T03:18:40.088Z,4.93
2019-05-25T03:21:13.455Z,5.23
2019-05-25T03:23:49.513Z,5.20
2019-05-25T03:26:27.904Z,7.67
2019-05-25T03:29:04.709Z,4.60
2019-05-25T03:31:38.257Z,5.97
2019-05-25T03:34:12.360Z,7.17
2019-05-25T03:36:45.920Z,6.13
2019-05-25T03:39:21.684Z,7.47
2019-05-25T03:42:08.846Z,5.30
2019-05-25T03:44:42.689Z,3.87
2019-05-25T03:47:31.568Z,5.13
2019-05-25T03:50:10.570Z,3.90
2019-05-25T03:52:54.226Z,6.77
2019-05-25T03:55:28.044Z,6.17
2019-05-25T03:58:01.282Z,5.80
2019-05-25T04:00:39.727Z,7.47
2019-05-25T04:03:27.867Z,5.50
2019-05-25T04:06:02.863Z,6.23
2019-05-25T04:08:40.143Z,6.73
2019-05-25T04:11:23.833Z,6.13
2019-05-25T04:13:59.578Z,6.70
2019-05-25T04:16:41.860Z,4.70
2019-05-25T04:19:18.985Z,6.67
2019-05-25T04:22:01.477Z,4.87
2019-05-25T04:24:35.005Z,6.47
2019-05-25T04:27:12.932Z,6.03
2019-05-25T04:29:49.593Z,6.10
2019-05-25T04:32:25.897Z,5.30
2019-05-25T04:35:02.862Z,5.70
2019-05-25T04:37:34.836Z,6.17
2019-05-25T04:40:18.651Z,5.97
2019-05-25T04:42:52.209Z,9.20
2019-05-25T04:45:25.853Z,5.40
2019-05-25T04:48:00.875Z,12.30
2019-05-25T04:50:36.004Z,5.33
2019-05-25T04:53:13.798Z,7.30
2019-05-25T04:56:00.047Z,5.70
2019-05-25T04:58:33.908Z,4.53
2019-05-25T05:01:07.488Z,5.77
2019-05-25T05:03:41.140Z,4.63
2019-05-25T05:06:14.517Z,4.87
2019-05-25T05:08:48.065Z,6.50
2019-05-25T05:11:21.599Z,5.33
2019-05-25T05:13:55.550Z,7.27
2019-05-25T05:16:28.947Z,6.70
2019-05-25T05:19:18.757Z,8.83
2019-05-25T05:22:08.085Z,5.67
2019-05-25T05:24:42.054Z,4.63
2019-05-25T05:27:18.401Z,7.20
2019-05-25T05:29:59.367Z,5.73
2019-05-25T05:32:43.780Z,6.60
2019-05-25T05:35:29.738Z,6.30
2019-05-25T05:38:06.335Z,5.90
2019-05-25T05:40:41.533Z,7.03
2019-05-25T05:43:32.189Z,5.63
2019-05-25T05:46:22.329Z,8.97
2019-05-25T05:48:59.615Z,6.50
2019-05-25T05:51:50.803Z,7.90
2019-05-25T05:54:33.975Z,6.73
2019-05-25T05:57:12.412Z,7.50
2019-05-25T05:59:53.412Z,5.50
2019-05-25T06:02:40.473Z,9.27
2019-05-25T06:05:18.512Z,8.43
2019-05-25T06:07:52.075Z,9.40
2019-05-25T06:10:25.946Z,5.33
2019-05-25T06:12:59.992Z,9.67
2019-05-25T06:15:33.481Z,6.97
2019-05-25T06:18:10.623Z,9.70
2019-05-25T06:20:54.879Z,8.57
2019-05-25T06:23:29.114Z,13.90
2019-05-25T06:29:13.790Z,6.73
2019-05-25T06:31:52.092Z,4.10
2019-05-25T06:34:29.763Z,5.90
2019-05-25T06:40:14.225Z,9.00
2019-05-25T06:42:59.617Z,9.23
2019-05-25T06:45:33.864Z,6.60
2019-05-25T06:48:09.611Z,8.90
2019-05-25T06:50:43.562Z,7.50
2019-05-25T06:53:41.130Z,5.80
2019-05-25T06:56:14.491Z,7.33
2019-05-25T06:58:51.066Z,9.33
2019-05-25T07:01:25.293Z,7.73
2019-05-25T07:04:02.532Z,7.23
2019-05-25T07:06:45.518Z,10.00
2019-05-25T07:09:20.699Z,11.60
2019-05-25T07:12:01.481Z,13.10
2019-05-25T07:14:50.071Z,10.83
2019-05-25T07:17:38.937Z,7.37
2019-05-25T07:20:23.622Z,7.27
2019-05-25T07:22:56.898Z,9.17
2019-05-25T07:25:30.044Z,11.20
2019-05-25T07:28:14.799Z,8.40
2019-05-25T07:30:58.710Z,6.07
2019-05-25T07:33:44.973Z,6.67
2019-05-25T07:36:21.049Z,9.93
2019-05-25T07:38:55.066Z,8.03
2019-05-25T07:41:31.693Z,13.43
2019-05-25T07:44:05.293Z,9.53
2019-05-25T07:46:39.407Z,8.40
2019-05-25T07:49:16.214Z,8.80
2019-05-25T07:51:50.535Z,9.27
2019-05-25T07:54:36.627Z,8.73
2019-05-25T07:57:24.271Z,8.60
2019-05-25T08:00:08.407Z,10.40
2019-05-25T08:02:51.467Z,9.87
2019-05-25T08:05:24.431Z,7.73
2019-05-25T08:08:01.757Z,7.03
2019-05-25T08:10:35.419Z,8.10
2019-05-25T08:13:37.780Z,8.37
2019-05-25T08:16:27.400Z,7.30
2019-05-25T08:19:20.381Z,11.40
2019-05-25T08:21:58.825Z,10.70
2019-05-25T08:24:37.784Z,8.33
2019-05-25T08:27:27.622Z,5.90
2019-05-25T08:30:06.316Z,10.87
2019-05-25T08:33:02.826Z,10.23
2019-05-25T08:35:42.519Z,10.77
2019-05-25T08:38:16.496Z,8.23
2019-05-25T08:40:52.230Z,9.13
2019-05-25T08:43:38.523Z,10.40
2019-05-25T08:46:27.047Z,9.80
2019-05-25T08:49:01.701Z,9.13
2019-05-25T08:51:35.699Z,7.60
2019-05-25T08:54:11.014Z,6.53
2019-05-25T08:56:46.141Z,7.93
2019-05-25T08:59:30.256Z,5.37
2019-05-25T09:02:14.874Z,5.40
2019-05-25T09:04:48.176Z,7.27
2019-05-25T09:07:23.981Z,13.07
2019-05-25T09:10:07.277Z,5.70
2019-05-25T09:12:50.154Z,5.70
2019-05-25T09:15:33.039Z,3.80
2019-05-25T09:18:16.018Z,8.97
2019-05-25T09:20:58.407Z,6.50
2019-05-25T09:23:31.297Z,7.43
2019-05-25T09:26:06.215Z,6.20
2019-05-25T09:28:40.885Z,6.27
2019-05-25T09:31:23.461Z,5.53
2019-05-25T09:33:57.427Z,5.17
2019-05-25T09:36:42.334Z,5.83
2019-05-25T09:39:16.325Z,3.10
2019-05-25T09:41:59.089Z,4.03
2019-05-25T09:44:32.602Z,4.03
2019-05-25T09:47:15.224Z,6.17
2019-05-25T09:49:49.541Z,5.23
2019-05-25T09:52:23.099Z,5.80
2019-05-25T09:54:58.673Z,5.30
2019-05-25T09:57:32.193Z,6.03
2019-05-25T10:00:13.193Z,5.40
2019-05-25T10:02:55.736Z,4.63
2019-05-25T10:05:29.223Z,3.07
2019-05-25T10:08:08.901Z,4.00
2019-05-25T10:10:43.432Z,3.93
2019-05-25T10:13:26.915Z,5.53
2019-05-25T10:16:00.840Z,3.50
2019-05-25T10:18:36.182Z,4.53
2019-05-25T10:21:09.840Z,6.57
2019-05-25T10:23:43.430Z,6.13
2019-05-25T10:26:17.599Z,5.40
2019-05-25T10:28:59.642Z,6.07
2019-05-25T10:31:33.293Z,6.47
2019-05-25T10:34:07.369Z,3.97
2019-05-25T10:36:50.344Z,9.10
2019-05-25T10:39:32.943Z,4.27
2019-05-25T10:42:15.846Z,4.27
2019-05-25T10:44:58.483Z,4.07
2019-05-25T10:47:31.688Z,3.10
2019-05-25T10:50:06.144Z,3.87
2019-05-25T10:52:39.810Z,3.77
2019-05-25T10:55:13.330Z,4.57
2019-05-25T10:57:55.660Z,5.43
2019-05-25T11:00:29.092Z,4.23
2019-05-25T11:03:02.611Z,4.03
2019-05-25T11:05:35.777Z,4.17
2019-05-25T11:08:09.316Z,5.07
2019-05-25T11:10:44.647Z,5.67
2019-05-25T11:13:18.224Z,6.07
2019-05-25T11:15:51.471Z,3.77
2019-05-25T11:18:35.854Z,4.37
2019-05-25T11:21:11.462Z,4.60
2019-05-25T11:23:56.724Z,5.60
2019-05-25T11:26:30.308Z,5.87
2019-05-25T11:29:03.867Z,10.20
2019-05-25T11:31:37.507Z,6.13
2019-05-25T11:34:11.195Z,9.23
2019-05-25T11:36:46.146Z,5.23
2019-05-25T11:39:19.410Z,7.27
2019-05-25T11:41:54.098Z,5.13
2019-05-25T11:44:44.644Z,6.00
2019-05-25T11:47:27.119Z,6.20
2019-05-25T11:49:59.514Z,7.80
2019-05-25T11:52:45.805Z,5.50
2019-05-25T11:55:22.470Z,5.17
2019-05-25T11:58:01.475Z,6.23
2019-05-25T12:00:34.748Z,4.13
2019-05-25T12:03:12.405Z,3.87
2019-05-25T12:05:55.106Z,4.80
2019-05-25T12:08:28.009Z,3.90
2019-05-25T12:11:01.193Z,3.97
2019-05-25T12:13:43.756Z,4.00
2019-05-25T12:16:27.018Z,6.53
2019-05-25T12:19:09.367Z,4.97
2019-05-25T12:21:43.141Z,4.47
2019-05-25T12:24:20.282Z,5.17
2019-05-25T12:26:54.715Z,6.57
2019-05-25T12:29:28.850Z,7.47
2019-05-25T12:32:12.558Z,7.23
2019-05-25T12:34:57.319Z,7.00
2019-05-25T12:37:30.860Z,9.63
2019-05-25T12:40:06.699Z,5.43
2019-05-25T12:42:45.824Z,6.47
2019-05-25T12:45:18.785Z,6.30
2019-05-25T12:47:52.708Z,6.20
2019-05-25T12:50:35.231Z,9.33
2019-05-25T12:53:08.557Z,7.23
2019-05-25T12:55:44.775Z,8.40
2019-05-25T12:58:19.310Z,8.40
2019-05-25T13:00:56.433Z,8.03
2019-05-25T13:03:31.132Z,4.50
2019-05-25T13:06:07.992Z,8.73
2019-05-25T13:08:46.228Z,5.07
2019-05-25T13:11:20.330Z,7.37
2019-05-25T13:14:14.445Z,7.43
2019-05-25T13:16:51.300Z,6.33
2019-05-25T13:19:33.894Z,6.03
2019-05-25T13:22:17.023Z,7.70
2019-05-25T13:25:12.557Z,6.37
2019-05-25T13:27:44.847Z,6.80
2019-05-25T13:30:19.206Z,7.23
2019-05-25T13:32:53.055Z,4.73
2019-05-25T13:35:26.993Z,7.60
2019-05-25T13:38:00.197Z,6.07
2019-05-25T13:40:33.652Z,7.20
2019-05-25T13:43:07.255Z,8.37
2019-05-25T13:45:40.789Z,6.00
2019-05-25T13:48:15.038Z,6.23
2019-05-25T13:50:52.697Z,7.47
2019-05-25T13:53:35.284Z,11.67
2019-05-25T13:56:17.813Z,5.93
2019-05-25T13:58:51.791Z,8.00
2019-05-25T14:01:37.806Z,6.40
2019-05-25T14:04:20.099Z,8.17
2019-05-25T14:06:53.734Z,7.40
2019-05-25T14:09:27.796Z,6.73
2019-05-25T14:12:10.008Z,6.23
2019-05-25T14:14:46.958Z,6.03
2019-05-25T14:17:25.065Z,5.37
2019-05-25T14:20:11.122Z,5.93
2019-05-25T14:22:58.235Z,6.63
2019-05-25T14:25:41.236Z,4.87
2019-05-25T14:28:15.492Z,7.87
2019-05-25T14:31:00.254Z,6.57
2019-05-25T14:33:33.523Z,3.83
2019-05-25T14:36:16.390Z,5.57
2019-05-25T14:38:59.489Z,5.47
2019-05-25T14:41:42.060Z,3.50
2019-05-25T14:44:18.460Z,6.07
2019-05-25T14:47:03.737Z,7.63
2019-05-25T14:49:41.535Z,9.10
2019-05-25T14:52:16.316Z,4.53
2019-05-25T14:55:08.674Z,3.70
2019-05-25T14:57:41.876Z,5.30
2019-05-25T15:00:16.422Z,4.87
2019-05-25T15:03:02.842Z,5.27
2019-05-25T15:05:36.303Z,6.57
2019-05-25T15:08:21.188Z,7.57
2019-05-25T15:11:07.573Z,3.93
2019-05-25T15:13:44.087Z,5.00
2019-05-25T15:16:17.508Z,6.90
2019-05-25T15:18:51.346Z,4.87
2019-05-25T15:21:24.798Z,5.37
2019-05-25T15:23:58.686Z,5.93
2019-05-25T15:26:32.586Z,5.07
2019-05-25T15:29:11.145Z,4.13
2019-05-25T15:31:43.245Z,5.50
2019-05-25T15:34:28.460Z,3.63
2019-05-25T15:37:12.636Z,8.23
2019-05-25T15:39:46.306Z,7.50
2019-05-25T15:42:21.389Z,4.53
2019-05-25T15:44:55.063Z,5.53
2019-05-25T15:47:30.048Z,5.00
2019-05-25T15:50:02.275Z,5.27
2019-05-25T15:52:36.511Z,7.03
2019-05-25T15:55:24.147Z,4.87
2019-05-25T15:57:57.571Z,4.50
2019-05-25T16:00:51.826Z,5.03
2019-05-25T16:03:25.987Z,6.77
2019-05-25T16:05:59.782Z,4.93
2019-05-25T16:08:45.930Z,6.67
2019-05-25T16:11:32.321Z,6.10
2019-05-25T16:14:07.737Z,5.33
2019-05-25T16:16:41.494Z,5.67
2019-05-25T16:19:15.191Z,4.30
2019-05-25T16:21:49.397Z,5.63
2019-05-25T16:24:34.023Z,4.83
2019-05-25T16:27:20.123Z,8.30
2019-05-25T16:29:54.610Z,4.67
2019-05-25T16:32:28.866Z,6.20
2019-05-25T16:35:14.038Z,6.27
2019-05-25T16:37:48.397Z,6.30
2019-05-25T16:40:23.160Z,6.83
2019-05-25T16:42:57.807Z,3.50
2019-05-25T16:45:31.978Z,5.93
2019-05-25T16:48:05.540Z,3.73
2019-05-25T16:50:41.458Z,4.27
2019-05-25T16:53:28.001Z,6.77
2019-05-25T16:56:13.696Z,7.17
2019-05-25T16:58:53.788Z,6.10
2019-05-25T17:01:27.552Z,4.87
2019-05-25T17:04:00.558Z,4.20
2019-05-25T17:06:35.732Z,7.53
2019-05-25T17:09:12.904Z,4.37
2019-05-25T17:12:26.810Z,5.37
2019-05-25T17:15:05.578Z,4.93
2019-05-25T17:17:38.691Z,3.90
2019-05-25T17:20:13.417Z,5.17
2019-05-25T17:23:00.845Z,7.23
2019-05-25T17:26:15.615Z,4.90
2019-05-25T17:28:50.228Z,5.97
2019-05-25T17:31:59.183Z,6.47
2019-05-25T17:34:45.324Z,5.73
2019-05-25T17:37:19.473Z,4.97
2019-05-25T17:40:15.352Z,3.30
2019-05-25T17:53:44.438Z,4.13
2019-05-25T17:56:26.547Z,3.40
2019-05-25T17:59:02.419Z,3.40
2019-05-25T18:01:45.958Z,5.97
2019-05-25T18:04:19.636Z,3.17
2019-05-25T18:06:53.269Z,4.20
2019-05-25T18:09:26.574Z,5.93
2019-05-25T18:12:00.010Z,3.83
2019-05-25T18:14:35.729Z,4.23
2019-05-25T18:17:25.788Z,6.83
2019-05-25T18:19:59.042Z,4.60
2019-05-25T18:22:37.034Z,4.93
2019-05-25T18:25:11.837Z,6.60
2019-05-25T18:27:45.411Z,4.43
2019-05-25T18:30:33.871Z,3.10
2019-05-25T18:33:16.647Z,4.33
2019-05-25T18:35:58.929Z,2.97
2019-05-25T18:38:31.951Z,4.07
2019-05-25T18:41:07.590Z,3.17
2019-05-25T18:43:41.120Z,4.43
2019-05-25T18:46:17.855Z,4.63
2019-05-25T18:48:51.602Z,6.50
2019-05-25T18:51:25.210Z,3.33
2019-05-25T18:54:01.968Z,5.20
2019-05-25T18:56:35.926Z,5.20
2019-05-25T18:59:09.548Z,5.17
2019-05-25T19:01:41.878Z,5.67
2019-05-25T19:04:42.153Z,4.83
2019-05-25T19:07:16.250Z,8.40
2019-05-25T19:09:52.641Z,4.83
2019-05-25T19:12:26.178Z,5.43
2019-05-25T19:14:58.656Z,5.80
2019-05-25T19:17:33.433Z,7.77
2019-05-25T19:20:09.220Z,4.83
2019-05-25T19:22:43.342Z,8.60
2019-05-25T19:25:32.875Z,4.20
2019-05-25T19:28:06.853Z,7.60
2019-05-25T19:30:40.642Z,4.07
2019-05-25T19:33:14.028Z,4.40
2019-05-25T19:35:47.495Z,4.70
2019-05-25T19:38:21.156Z,6.00
2019-05-25T19:40:54.998Z,3.57
2019-05-25T19:43:28.832Z,4.93
2019-05-25T19:46:02.317Z,6.97
2019-05-25T19:48:36.329Z,7.90
2019-05-25T19:51:21.422Z,3.90
2019-05-25T19:53:55.722Z,5.03
2019-05-25T19:56:29.240Z,4.60
2019-05-25T19:59:13.865Z,3.93
2019-05-25T20:01:47.487Z,3.83
2019-05-25T20:04:21.820Z,5.77
2019-05-25T20:06:55.009Z,5.00
2019-05-25T20:09:40.700Z,8.93
2019-05-25T20:12:13.924Z,5.23
2019-05-25T20:15:05.212Z,5.73
2019-05-25T20:17:38.717Z,4.50
2019-05-25T20:20:12.267Z,4.97
2019-05-25T20:22:45.440Z,5.97
2019-05-25T20:25:19.358Z,6.03
2019-05-25T20:27:53.442Z,6.60
2019-05-25T20:30:26.719Z,5.80
2019-05-25T20:33:00.299Z,5.00
2019-05-25T20:35:33.894Z,5.27
2019-05-25T20:38:07.428Z,5.80
2019-05-25T20:40:40.931Z,6.83
2019-05-25T20:43:13.199Z,7.00
2019-05-25T20:45:47.085Z,8.20
2019-05-25T20:48:32.856Z,5.17
2019-05-25T20:51:06.297Z,6.93
2019-05-25T20:53:39.982Z,5.93
2019-05-25T20:56:13.150Z,5.67
2019-05-25T20:58:46.385Z,8.53
2019-05-25T21:01:20.283Z,5.77
2019-05-25T21:03:53.793Z,6.13
2019-05-25T21:06:27.055Z,6.63
2019-05-25T21:09:00.728Z,5.87
2019-05-25T21:11:35.058Z,7.40
2019-05-25T21:14:08.674Z,7.23
2019-05-25T21:16:42.586Z,6.93
2019-05-25T21:19:27.315Z,8.03
2019-05-25T21:22:01.169Z,10.50
2019-05-25T21:24:35.627Z,9.40
2019-05-25T21:27:09.907Z,6.37
2019-05-25T21:29:55.991Z,10.83
2019-05-25T21:32:29.704Z,8.67
2019-05-25T21:35:03.280Z,11.57
2019-05-25T21:37:37.151Z,11.53
2019-05-25T21:47:24.397Z,12.43
2019-05-25T21:50:46.034Z,15.07
2019-05-25T21:56:50.902Z,14.90
2019-05-25T21:59:26.988Z,19.67
2019-05-25T22:02:00.513Z,18.37
2019-05-25T22:04:33.908Z,19.90
2019-05-25T22:07:09.048Z,13.83
2019-05-25T22:09:43.389Z,18.83
2019-05-25T22:12:22.012Z,15.97
2019-05-25T22:15:17.085Z,20.73
2019-05-25T22:18:03.327Z,16.87
2019-05-25T22:21:02.287Z,15.70
2019-05-25T22:23:46.076Z,14.83
2019-05-25T22:34:48.052Z,16.37
2019-05-25T22:40:36.378Z,13.53
2019-05-25T22:43:13.254Z,11.73
2019-05-25T22:45:48.119Z,12.90
2019-05-25T22:48:22.219Z,11.20
2019-05-25T22:51:33.546Z,12.13
2019-05-25T23:05:06.858Z,11.43
2019-05-25T23:07:39.210Z,12.00
2019-05-25T23:10:34.433Z,10.57
2019-05-25T23:13:25.938Z,11.83
2019-05-25T23:16:17.519Z,10.77
2019-05-25T23:18:51.665Z,11.77
2019-05-25T23:21:28.212Z,8.77
2019-05-25T23:24:02.379Z,10.40
2019-05-25T23:26:50.648Z,9.90
2019-05-25T23:29:24.542Z,9.60
2019-05-25T23:32:16.274Z,10.17
2019-05-25T23:34:49.723Z,13.37
2019-05-25T23:37:23.722Z,9.93
2019-05-25T23:40:10.594Z,15.70
2019-05-25T23:42:45.218Z,12.27
2019-05-25T23:45:21.159Z,8.70
2019-05-25T23:48:01.944Z,9.57
2019-05-25T23:50:38.247Z,11.63
2019-05-25T23:53:30.167Z,10.73
2019-05-25T23:56:03.460Z,10.07
2019-05-25T23:58:48.133Z,11.07
